Time;durP1;ratioP1;P1;durP2;ratioP2;P2;SDS_P1;SDS_P2;PMS_P1;PMS_P2;Temp;Humidity;BMP_temperature;BMP_pressure;BME280_temperature;BME280_humidity;BME280_pressure;Samples;Min_cycle;Max_cycle;Signal;HPM_P1;HPM_P2
2021/03/27 00:01:50;;;;;;;6.00;3.88;;;;;;;12.72;45.01;99677.41;5091587;28;20052;-61
2021/03/27 00:04:21;;;;;;;6.82;3.63;;;;;;;12.84;45.00;99688.59;5089710;27;20048;-60
2021/03/27 00:06:54;;;;;;;5.50;3.35;;;;;;;12.83;45.00;99700.94;5096183;28;20051;-59
2021/03/27 00:09:34;;;;;;;4.82;3.40;;;;;;;12.92;45.03;99707.22;5093633;28;20409;-61
2021/03/27 00:12:06;;;;;;;6.55;3.75;;;;;;;12.90;45.22;99717.94;5095715;28;20056;-58
2021/03/27 00:14:40;;;;;;;5.60;3.60;;;;;;;13.02;44.78;99727.47;5094351;28;20066;-60
2021/03/27 00:17:14;;;;;;;5.10;3.05;;;;;;;12.98;44.69;99735.78;5090484;28;20051;-59
2021/03/27 00:19:46;;;;;;;4.72;2.92;;;;;;;12.99;45.19;99742.97;5089400;28;20044;-61
2021/03/27 00:22:20;;;;;;;6.85;3.65;;;;;;;12.90;49.71;99765.47;5090554;28;20058;-59
2021/03/27 00:25:09;;;;;;;5.75;3.60;;;;;;;12.65;51.74;99756.22;5091485;28;20055;-59
2021/03/27 00:27:42;;;;;;;5.40;3.85;;;;;;;12.46;52.40;99759.53;5088890;28;20059;-59
2021/03/27 00:30:15;;;;;;;5.03;3.30;;;;;;;12.33;53.26;99760.69;5090349;28;21686;-58
2021/03/27 00:32:46;;;;;;;4.40;2.72;;;;;;;12.11;53.98;99775.81;5090503;28;20066;-59
2021/03/27 00:35:19;;;;;;;7.53;4.90;;;;;;;11.94;55.81;99773.97;5088610;28;20489;-59
2021/03/27 00:37:47;;;;;;;8.77;5.93;;;;;;;11.75;59.12;99777.22;5088483;28;20055;-59
2021/03/27 00:40:18;;;;;;;7.55;5.55;;;;;;;11.47;61.17;99766.59;5090177;28;20052;-57
2021/03/27 00:42:49;;;;;;;16.08;7.47;;;;;;;11.28;63.89;99767.03;5089233;28;20056;-60
2021/03/27 00:45:19;;;;;;;12.68;8.00;;;;;;;11.15;65.74;99796.78;5085418;28;20784;-60
2021/03/27 00:47:48;;;;;;;;;;;;;;;11.05;65.84;99816.66;5089423;28;20052;-61
2021/03/27 00:50:26;;;;;;;12.13;9.73;;;;;;;10.90;66.11;99815.22;5088417;28;19927;-61
2021/03/27 00:52:58;;;;;;;13.88;11.18;;;;;;;10.80;66.71;99849.00;5091713;28;20054;-60
2021/03/27 00:55:36;;;;;;;15.77;11.05;;;;;;;10.67;66.94;99866.75;5091136;28;20056;-61
2021/03/27 00:58:12;;;;;;;13.80;10.88;;;;;;;10.44;67.88;99872.50;5089075;28;20052;-60
2021/03/27 01:00:44;;;;;;;18.23;12.63;;;;;;;10.30;69.33;99871.84;5087888;28;20503;-61
2021/03/27 01:03:15;;;;;;;17.50;12.43;;;;;;;10.17;69.61;99887.53;5089953;28;20548;-60
2021/03/27 01:05:45;;;;;;;15.77;11.90;;;;;;;9.99;69.24;99889.44;5087970;28;20059;-61
2021/03/27 01:08:15;;;;;;;11.85;9.38;;;;;;;9.74;69.41;99903.00;5092254;28;20055;-60
2021/03/27 01:10:49;;;;;;;10.25;5.43;;;;;;;9.61;67.45;99897.53;5093495;28;20048;-60
2021/03/27 01:13:22;;;;;;;7.78;5.72;;;;;;;9.43;67.37;99921.66;5092215;28;20051;-59
2021/03/27 01:15:53;;;;;;;8.85;5.75;;;;;;;9.28;67.49;99922.91;5088679;28;20120;-58
2021/03/27 01:18:26;;;;;;;7.07;6.15;;;;;;;9.17;68.31;99919.59;5087843;28;20075;-60
2021/03/27 01:20:59;;;;;;;8.07;6.70;;;;;;;9.13;68.11;99907.47;5088255;28;20048;-60
2021/03/27 01:23:26;;;;;;;8.70;7.45;;;;;;;9.06;67.91;99926.56;5088148;28;20415;-60
2021/03/27 01:26:08;;;;;;;9.68;8.68;;;;;;;9.00;67.39;99927.81;5087997;28;20412;-59
2021/03/27 01:28:39;;;;;;;12.35;9.88;;;;;;;8.95;67.46;99928.78;5089572;28;20048;-61
2021/03/27 01:31:14;;;;;;;12.95;10.18;;;;;;;8.93;68.33;99936.63;5089839;28;20428;-60
2021/03/27 01:33:55;;;;;;;10.80;9.65;;;;;;;8.92;67.30;99943.28;5087173;28;20420;-60
2021/03/27 01:36:26;;;;;;;13.88;11.13;;;;;;;8.84;68.21;99946.81;5088606;28;20058;-60
2021/03/27 01:39:00;;;;;;;11.18;9.52;;;;;;;8.81;67.93;99931.63;5091723;28;20050;-58
2021/03/27 01:41:39;;;;;;;9.95;7.80;;;;;;;8.74;67.04;99956.25;5087207;28;20055;-60
2021/03/27 01:44:18;;;;;;;9.32;8.10;;;;;;;8.69;67.43;99950.78;5087396;28;20056;-61
2021/03/27 01:47:08;;;;;;;10.98;8.30;;;;;;;8.67;67.01;99969.72;5088821;28;20063;-59
2021/03/27 01:49:57;;;;;;;10.77;8.68;;;;;;;8.64;67.24;99968.41;5088001;28;20179;-60
2021/03/27 01:52:59;;;;;;;8.43;7.53;;;;;;;8.62;67.08;99979.00;5088589;28;20446;-60
2021/03/27 01:55:36;;;;;;;8.52;7.38;;;;;;;8.58;67.39;99982.72;5007493;28;20045;-58
2021/03/27 01:58:12;;;;;;;11.60;8.65;;;;;;;8.52;67.71;99979.22;5076862;28;20391;-61
2021/03/27 02:00:46;;;;;;;10.18;6.97;;;;;;;8.49;67.74;99997.34;5088007;28;20055;-61
2021/03/27 02:03:17;;;;;;;8.00;7.07;;;;;;;8.41;68.50;99981.41;5088617;28;20062;-61
2021/03/27 02:05:51;;;;;;;11.63;8.68;;;;;;;8.42;68.39;99994.19;5088853;28;20071;-61
2021/03/27 02:08:25;;;;;;;8.50;6.43;;;;;;;8.43;67.48;100009.69;5087839;28;20048;-61
2021/03/27 02:11:01;;;;;;;9.07;7.07;;;;;;;8.34;68.57;99997.66;5087547;28;20047;-61
2021/03/27 02:13:37;;;;;;;10.73;6.43;;;;;;;8.33;67.92;100010.69;5089360;28;20056;-61
2021/03/27 02:16:17;;;;;;;8.05;5.75;;;;;;;8.30;67.61;100014.09;5088607;28;20477;-60
2021/03/27 02:19:01;;;;;;;8.27;6.30;;;;;;;8.28;67.85;100007.22;5088825;28;20071;-61
2021/03/27 02:21:44;;;;;;;7.68;4.85;;;;;;;8.22;68.50;100036.22;5089171;28;20055;-60
2021/03/27 02:24:40;;;;;;;7.43;4.30;;;;;;;8.09;68.33;100024.81;5088871;28;20056;-61
2021/03/27 02:27:12;;;;;;;7.63;4.28;;;;;;;8.02;68.76;100029.97;5087967;28;20692;-60
2021/03/27 02:30:05;;;;;;;7.30;3.95;;;;;;;7.93;68.74;100026.25;5088858;28;20058;-61
2021/03/27 02:32:50;;;;;;;6.78;4.07;;;;;;;7.88;70.07;100015.25;5089534;28;20488;-61
2021/03/27 02:35:28;;;;;;;6.90;4.10;;;;;;;7.82;69.11;100024.81;5090653;28;20051;-61
2021/03/27 02:38:07;;;;;;;6.45;3.75;;;;;;;7.85;68.90;100032.50;5092185;28;20055;-60
2021/03/27 02:40:36;;;;;;;8.27;4.73;;;;;;;7.83;69.43;100045.84;5090044;28;20139;-61
2021/03/27 02:43:07;;;;;;;7.25;4.18;;;;;;;7.78;69.29;100046.78;5090647;28;20044;-60
2021/03/27 02:45:42;;;;;;;7.63;3.92;;;;;;;7.66;69.89;100046.44;5051184;28;20056;-60
2021/03/27 02:48:20;;;;;;;6.35;2.63;;;;;;;7.66;69.29;100063.88;5050662;28;20497;-61
2021/03/27 02:50:58;;;;;;;8.10;2.97;;;;;;;7.58;70.25;100059.06;5053485;28;20045;-60
2021/03/27 02:53:34;;;;;;;5.95;3.30;;;;;;;7.60;70.96;100076.22;5053911;28;20068;-60
2021/03/27 02:56:24;;;;;;;4.25;2.92;;;;;;;7.66;69.80;100068.63;5051046;28;20053;-60
2021/03/27 02:59:12;;;;;;;4.70;3.63;;;;;;;7.69;71.48;100060.53;5049913;28;20072;-60
2021/03/27 03:01:48;;;;;;;5.53;3.17;;;;;;;7.71;70.98;100068.53;5051061;28;20381;-60
2021/03/27 03:04:20;;;;;;;4.47;3.05;;;;;;;7.73;70.71;100074.59;5050123;28;20497;-60
2021/03/27 03:06:52;;;;;;;6.82;2.80;;;;;;;7.75;70.31;100079.81;5051796;28;20473;-60
2021/03/27 03:09:29;;;;;;;4.55;2.67;;;;;;;7.64;69.33;100071.72;5050251;28;20412;-60
2021/03/27 03:12:08;;;;;;;3.75;2.53;;;;;;;7.59;70.39;100082.88;5050399;28;20048;-59
2021/03/27 03:14:46;;;;;;;3.35;2.70;;;;;;;7.58;70.76;100085.94;5053178;28;20057;-60
2021/03/27 03:17:22;;;;;;;4.78;3.05;;;;;;;7.61;70.80;100094.47;5050517;28;20505;-59
2021/03/27 03:19:54;;;;;;;4.68;2.80;;;;;;;7.60;70.08;100100.31;5053762;28;20076;-59
2021/03/27 03:22:32;;;;;;;6.63;2.78;;;;;;;7.56;70.42;100102.91;5050795;28;20375;-59
2021/03/27 03:25:07;;;;;;;3.92;2.80;;;;;;;7.51;70.97;100105.75;5049872;28;20486;-59
2021/03/27 03:27:46;;;;;;;4.28;1.95;;;;;;;7.40;70.12;100121.72;5051417;28;20083;-60
2021/03/27 03:30:27;;;;;;;5.20;2.90;;;;;;;7.44;71.61;100116.41;5050860;28;20056;-59
2021/03/27 03:33:23;;;;;;;3.97;2.33;;;;;;;7.36;72.02;100126.22;5050880;28;20053;-59
2021/03/27 03:35:56;;;;;;;4.82;2.45;;;;;;;7.34;71.96;100122.09;5051005;28;20053;-59
2021/03/27 03:38:40;;;;;;;6.47;2.50;;;;;;;7.32;71.66;100125.97;5052467;28;20064;-59
2021/03/27 03:41:17;;;;;;;5.65;2.50;;;;;;;7.31;71.37;100134.63;5049986;28;20055;-60
2021/03/27 03:43:54;;;;;;;6.40;2.78;;;;;;;7.32;71.29;100131.53;5062286;28;20056;-59
2021/03/27 03:46:33;;;;;;;3.72;2.00;;;;;;;7.24;70.13;100137.75;5089303;28;20055;-59
2021/03/27 03:49:32;;;;;;;5.55;3.08;;;;;;;7.25;70.88;100149.66;5089668;28;20361;-60
2021/03/27 03:52:12;;;;;;;6.53;3.30;;;;;;;7.26;70.75;100141.03;5093607;28;20373;-60
2021/03/27 03:54:48;;;;;;;;;;;;;;;7.26;70.61;100149.34;5090572;28;20052;-60
2021/03/27 03:57:31;;;;;;;7.20;3.22;;;;;;;7.23;70.04;100147.19;5090072;28;19935;-58
2021/03/27 04:00:08;;;;;;;8.98;3.55;;;;;;;7.32;70.79;100148.16;5089861;28;20048;-58
2021/03/27 04:02:42;;;;;;;7.97;3.70;;;;;;;7.32;69.95;100173.09;5089817;28;20145;-59
2021/03/27 04:05:17;;;;;;;8.60;3.97;;;;;;;7.29;69.61;100157.06;5090019;28;20048;-59
2021/03/27 04:07:49;;;;;;;5.53;4.03;;;;;;;7.36;69.34;100155.88;5089136;28;20052;-59
2021/03/27 04:10:20;;;;;;;9.07;4.05;;;;;;;7.40;69.22;100154.16;5095388;28;20055;-59
2021/03/27 04:12:51;;;;;;;9.13;3.85;;;;;;;7.40;68.98;100165.22;5094576;28;20071;-59
2021/03/27 04:15:25;;;;;;;10.13;4.30;;;;;;;7.43;68.48;100167.38;5089925;28;20304;-60
2021/03/27 04:18:09;;;;;;;6.60;4.30;;;;;;;7.39;67.88;100169.09;5089084;28;20056;-60
2021/03/27 04:20:51;;;;;;;6.20;4.47;;;;;;;7.34;68.61;100174.75;5090453;28;20055;-61
2021/03/27 04:23:24;;;;;;;6.03;3.58;;;;;;;7.29;67.24;100170.09;5089646;28;20052;-60
2021/03/27 04:26:09;;;;;;;9.25;3.95;;;;;;;7.19;67.23;100175.78;5090030;28;20048;-61
2021/03/27 04:28:50;;;;;;;7.78;4.18;;;;;;;7.09;67.10;100185.06;5090955;28;20071;-61
2021/03/27 04:31:23;;;;;;;9.55;4.57;;;;;;;7.04;66.97;100185.16;5088974;28;20061;-61
2021/03/27 04:33:59;;;;;;;6.75;4.13;;;;;;;6.94;67.14;100180.56;5089022;28;20051;-61
2021/03/27 04:36:32;;;;;;;6.45;3.90;;;;;;;6.85;67.29;100183.16;5088279;28;20054;-61
2021/03/27 04:39:07;;;;;;;8.80;4.45;;;;;;;6.92;67.35;100193.88;5090741;28;20043;-62
2021/03/27 04:41:41;;;;;;;8.77;4.53;;;;;;;6.95;67.24;100201.59;5088502;28;21291;-62
2021/03/27 04:44:21;;;;;;;7.32;5.05;;;;;;;6.99;67.29;100204.59;5088694;28;20062;-62
2021/03/27 04:46:55;;;;;;;7.15;3.40;;;;;;;6.98;66.98;100197.41;5089455;28;20066;-62
2021/03/27 04:49:28;;;;;;;9.70;4.38;;;;;;;7.01;67.41;100205.09;5088317;28;20485;-62
2021/03/27 04:52:08;;;;;;;8.23;4.93;;;;;;;6.99;67.21;100210.13;5088495;28;20044;-62
2021/03/27 04:54:45;;;;;;;8.20;4.50;;;;;;;6.94;67.13;100207.44;5089005;28;20059;-62
2021/03/27 04:57:30;;;;;;;11.73;5.10;;;;;;;6.88;67.52;100203.88;5088831;28;20055;-62
2021/03/27 05:00:09;;;;;;;10.38;5.25;;;;;;;6.83;67.56;100207.56;5088222;28;20047;-62
2021/03/27 05:02:43;;;;;;;9.82;5.70;;;;;;;6.80;67.58;100204.53;5087596;28;20055;-62
2021/03/27 05:05:17;;;;;;;10.20;5.05;;;;;;;6.81;67.19;100203.44;5089563;28;20483;-62
2021/03/27 05:07:55;;;;;;;8.52;3.95;;;;;;;6.78;66.46;100215.91;5088436;28;20051;-63
2021/03/27 05:10:31;;;;;;;7.85;5.45;;;;;;;6.76;67.68;100222.88;5087891;28;20052;-62
2021/03/27 05:13:09;;;;;;;10.65;5.53;;;;;;;6.75;67.23;100226.75;5089372;28;20048;-63
2021/03/27 05:15:46;;;;;;;11.77;5.72;;;;;;;6.73;67.41;100217.94;5088062;28;20067;-63
2021/03/27 05:18:44;;;;;;;7.72;4.25;;;;;;;6.74;67.37;100225.94;5089077;28;20473;-63
2021/03/27 05:21:37;;;;;;;11.00;5.78;;;;;;;6.74;67.90;100230.63;5089640;28;20412;-63
2021/03/27 05:24:21;;;;;;;8.48;4.45;;;;;;;6.73;67.01;100229.81;5089383;28;20040;-63
2021/03/27 05:26:58;;;;;;;13.18;5.18;;;;;;;6.77;67.29;100225.34;5088750;28;20059;-63
2021/03/27 05:29:46;;;;;;;12.15;5.20;;;;;;;6.86;67.18;100234.63;5088814;28;20051;-62
2021/03/27 05:32:45;;;;;;;9.85;5.03;;;;;;;6.92;66.22;100238.16;5088193;28;20126;-64
2021/03/27 05:35:44;;;;;;;10.40;4.70;;;;;;;6.97;65.67;100242.81;5088120;28;20055;-64
2021/03/27 05:38:17;;;;;;;14.32;5.63;;;;;;;7.05;66.36;100242.16;5089339;28;20161;-64
2021/03/27 05:41:35;;;;;;;14.95;5.13;;;;;;;7.16;65.19;100253.94;5087823;28;20059;-64
2021/03/27 05:44:38;;;;;;;11.80;4.90;;;;;;;7.23;65.01;100252.47;5086661;28;20052;-63
2021/03/27 05:47:40;;;;;;;14.98;5.38;;;;;;;7.29;64.93;100248.50;5087530;28;20055;-64
2021/03/27 05:50:34;;;;;;;12.20;3.70;;;;;;;7.38;64.81;100261.69;5087974;28;20508;-63
2021/03/27 05:53:26;;;;;;;10.63;3.80;;;;;;;7.41;64.27;100253.59;5089359;28;20059;-63
2021/03/27 05:56:26;;;;;;;7.75;3.20;;;;;;;7.51;64.00;100245.13;5077166;28;20052;-63
2021/03/27 05:59:23;;;;;;;8.63;3.85;;;;;;;7.62;63.65;100261.59;5087743;28;20059;-63
2021/03/27 06:01:55;;;;;;;11.93;4.22;;;;;;;7.62;64.30;100250.53;5087447;28;20052;-63
2021/03/27 06:05:14;;;;;;;11.10;4.00;;;;;;;7.55;64.04;100250.91;5087558;28;20059;-63
2021/03/27 06:08:09;;;;;;;9.45;3.80;;;;;;;7.66;63.65;100251.56;5087111;28;20059;-63
2021/03/27 06:10:44;;;;;;;9.98;3.60;;;;;;;7.66;62.31;100246.84;5087579;28;20056;-63
2021/03/27 06:13:24;;;;;;;10.05;3.60;;;;;;;7.70;63.03;100245.13;5087682;28;20051;-62
2021/03/27 06:16:09;;;;;;;;;;;;;;;7.74;62.10;100245.34;5088016;28;20389;-63
2021/03/27 06:19:03;;;;;;;7.40;3.00;;;;;;;7.71;61.59;100245.97;5079956;28;19920;-62
2021/03/27 06:21:43;;;;;;;8.98;4.20;;;;;;;7.73;62.08;100240.94;5087878;28;20516;-62
2021/03/27 06:24:45;;;;;;;10.85;4.38;;;;;;;7.87;62.32;100255.69;5088522;28;20484;-62
2021/03/27 06:27:43;;;;;;;11.10;3.85;;;;;;;7.97;60.73;100260.22;5088060;28;20048;-61
2021/03/27 06:30:27;;;;;;;9.18;3.97;;;;;;;7.98;61.58;100256.34;5086030;28;20388;-62
2021/03/27 06:33:30;;;;;;;8.07;3.80;;;;;;;8.08;62.04;100263.66;5087175;28;20062;-61
2021/03/27 06:36:25;;;;;;;8.68;3.63;;;;;;;8.06;61.08;100277.00;5086780;28;20052;-62
2021/03/27 06:39:34;;;;;;;9.63;3.53;;;;;;;8.12;60.26;100276.63;5088342;28;20052;-62
2021/03/27 06:42:30;;;;;;;13.30;3.08;;;;;;;8.06;60.19;100283.41;5092695;28;20416;-62
2021/03/27 06:45:20;;;;;;;6.47;2.97;;;;;;;8.01;60.63;100297.34;5087651;28;20059;-62
2021/03/27 06:48:05;;;;;;;10.00;3.55;;;;;;;7.97;61.00;100290.75;5087194;28;20414;-62
2021/03/27 06:50:46;;;;;;;7.45;2.65;;;;;;;8.02;60.65;100315.63;5089245;28;20726;-61
2021/03/27 06:53:22;;;;;;;6.30;3.15;;;;;;;8.06;61.02;100294.50;5090368;28;20047;-62
2021/03/27 06:56:20;;;;;;;10.10;4.60;;;;;;;8.17;59.93;100285.97;5089529;28;20620;-62
2021/03/27 06:59:14;;;;;;;12.50;3.33;;;;;;;8.28;60.37;100307.72;5086722;28;20493;-60
2021/03/27 07:02:11;;;;;;;7.95;3.17;;;;;;;8.33;60.02;100299.28;5087649;28;20503;-61
2021/03/27 07:05:28;;;;;;;8.68;3.25;;;;;;;8.31;59.69;100314.59;5070903;28;20507;-62
2021/03/27 07:08:08;;;;;;;6.90;3.40;;;;;;;8.56;59.04;100315.34;5086672;28;20056;-62
2021/03/27 07:11:23;;;;;;;9.73;3.10;;;;;;;8.70;58.19;100324.53;5089133;28;20063;-62
2021/03/27 07:14:41;;;;;;;9.40;3.40;;;;;;;8.70;58.81;100314.22;5049653;28;20056;-62
2021/03/27 07:17:31;;;;;;;11.75;3.65;;;;;;;8.68;58.89;100326.78;5028848;28;20072;-62
2021/03/27 07:20:30;;;;;;;8.52;3.08;;;;;;;8.72;58.79;100350.03;5082246;28;20492;-62
2021/03/27 07:23:35;;;;;;;9.67;2.97;;;;;;;8.63;58.26;100329.63;5090153;28;20071;-62
2021/03/27 07:26:40;;;;;;;7.90;2.83;;;;;;;8.62;57.96;100328.00;5075876;28;20489;-62
2021/03/27 07:29:40;;;;;;;8.98;2.90;;;;;;;8.54;58.30;100349.75;5091667;28;20059;-62
2021/03/27 07:32:35;;;;;;;11.98;3.85;;;;;;;8.39;60.59;100333.34;5089184;28;20052;-61
2021/03/27 07:35:28;;;;;;;9.55;3.85;;;;;;;8.44;62.73;100349.09;5089967;27;20055;-62
2021/03/27 07:38:21;;;;;;;11.23;4.30;;;;;;;8.31;62.22;100364.56;5091390;28;20052;-61
2021/03/27 07:40:58;;;;;;;11.02;4.78;;;;;;;8.36;63.20;100375.59;5090725;27;20055;-61
2021/03/27 07:44:01;;;;;;;9.65;3.47;;;;;;;8.08;66.23;100394.03;5090071;28;20040;-61
2021/03/27 07:46:42;;;;;;;12.57;3.75;;;;;;;7.70;69.25;100383.72;5089544;28;20056;-62
2021/03/27 07:49:43;;;;;;;8.45;4.03;;;;;;;7.53;70.02;100391.72;5089734;28;20048;-60
2021/03/27 07:52:36;;;;;;;12.73;3.80;;;;;;;7.57;70.66;100408.59;5089201;28;20058;-60
2021/03/27 07:55:39;;;;;;;8.27;3.58;;;;;;;7.68;69.63;100408.16;5090709;28;20066;-61
2021/03/27 07:58:20;;;;;;;6.43;3.40;;;;;;;7.76;68.77;100416.94;5090986;28;20051;-61
2021/03/27 08:01:14;;;;;;;6.80;3.20;;;;;;;7.98;68.34;100442.19;5092087;28;20680;-60
2021/03/27 08:04:05;;;;;;;6.28;3.15;;;;;;;8.00;67.95;100451.03;5090700;28;20546;-61
2021/03/27 08:06:50;;;;;;;3.17;1.52;;;;;;;7.83;66.43;100462.63;5091342;27;20063;-60
2021/03/27 08:10:07;;;;;;;2.58;0.88;;;;;;;7.39;63.32;100490.53;5090383;28;20059;-59
2021/03/27 08:13:21;;;;;;;3.90;1.20;;;;;;;6.93;64.94;100488.19;5088883;28;20063;-60
2021/03/27 08:16:32;;;;;;;3.80;1.83;;;;;;;6.63;66.63;100499.19;5089709;28;20397;-61
2021/03/27 08:19:46;;;;;;;5.85;1.90;;;;;;;6.39;68.66;100507.41;5072053;28;20523;-60
2021/03/27 08:22:54;;;;;;;6.47;1.70;;;;;;;6.26;69.90;100508.03;5088771;28;20469;-60
2021/03/27 08:25:35;;;;;;;7.05;1.60;;;;;;;6.18;69.98;100525.22;5041408;28;20056;-59
2021/03/27 08:28:40;;;;;;;4.95;1.50;;;;;;;6.15;70.60;100525.78;5089747;28;20052;-59
2021/03/27 08:31:36;;;;;;;3.10;1.73;;;;;;;6.12;70.55;100542.94;5059480;28;20508;-59
2021/03/27 08:34:47;;;;;;;3.40;1.23;;;;;;;5.90;68.79;100546.88;5090526;27;20051;-60
2021/03/27 08:37:36;;;;;;;9.02;1.80;;;;;;;5.83;69.80;100546.31;5089358;27;20056;-60
2021/03/27 08:40:29;;;;;;;5.80;2.10;;;;;;;5.77;70.02;100561.25;5089400;28;20059;-60
2021/03/27 08:43:23;;;;;;;4.55;2.70;;;;;;;5.82;69.82;100558.50;5075115;28;20051;-59
2021/03/27 08:46:37;;;;;;;8.13;2.65;;;;;;;5.92;69.09;100583.31;5087539;28;20089;-59
2021/03/27 08:49:30;;;;;;;6.63;3.60;;;;;;;5.93;69.54;100570.34;5088233;27;20055;-60
2021/03/27 08:52:05;;;;;;;7.20;3.17;;;;;;;5.84;69.87;100570.09;5090037;28;20059;-60
2021/03/27 08:55:04;;;;;;;6.95;2.78;;;;;;;5.86;70.24;100576.19;5087427;28;20044;-60
2021/03/27 08:57:41;;;;;;;6.07;2.70;;;;;;;5.99;69.83;100581.13;5088054;28;20055;-60
2021/03/27 09:01:01;;;;;;;4.10;1.85;;;;;;;6.14;67.29;100573.91;5088596;27;20062;-60
2021/03/27 09:04:03;;;;;;;4.07;2.00;;;;;;;6.20;67.75;100581.06;5089380;28;20476;-60
2021/03/27 09:06:46;;;;;;;3.22;2.38;;;;;;;6.32;67.12;100578.81;5088511;27;20418;-60
2021/03/27 09:09:33;;;;;;;4.47;2.20;;;;;;;6.36;65.72;100582.66;5086930;28;20477;-60
2021/03/27 09:12:12;;;;;;;7.35;2.47;;;;;;;6.40;67.36;100586.50;5090822;28;20056;-59
2021/03/27 09:14:54;;;;;;;9.00;2.80;;;;;;;6.49;67.27;100601.41;5089491;28;20055;-60
2021/03/27 09:17:52;;;;;;;4.93;2.80;;;;;;;6.63;66.15;100606.31;5087477;28;20519;-59
2021/03/27 09:20:33;;;;;;;6.47;2.60;;;;;;;6.87;65.13;100607.31;5089652;28;20064;-60
2021/03/27 09:23:12;;;;;;;5.70;2.50;;;;;;;7.26;64.35;100609.22;5088724;28;20048;-60
2021/03/27 09:26:16;;;;;;;5.30;2.60;;;;;;;8.08;62.13;100608.50;5088213;28;20047;-60
2021/03/27 09:28:55;;;;;;;5.22;2.50;;;;;;;8.64;60.47;100608.94;5086875;28;20062;-61
2021/03/27 09:31:57;;;;;;;4.88;2.05;;;;;;;8.89;59.84;100613.31;5087682;28;20052;-61
2021/03/27 09:34:40;;;;;;;5.70;2.75;;;;;;;9.16;57.98;100620.16;5084512;28;20059;-61
2021/03/27 09:37:18;;;;;;;5.43;2.88;;;;;;;9.77;57.30;100609.97;5088616;28;20054;-61
2021/03/27 09:39:52;;;;;;;6.07;2.85;;;;;;;10.40;56.33;100597.41;5089086;28;20055;-62
2021/03/27 09:42:51;;;;;;;4.53;2.72;;;;;;;11.44;54.50;100603.91;5087913;28;20051;-62
2021/03/27 09:45:30;;;;;;;5.78;2.72;;;;;;;12.67;48.70;100602.56;5089025;28;20052;-62
2021/03/27 09:48:27;;;;;;;4.63;2.88;;;;;;;15.55;40.51;100591.97;5089836;28;20044;-63
2021/03/27 09:51:06;;;;;;;4.03;2.78;;;;;;;17.93;36.69;100594.72;5087520;28;20048;-63
2021/03/27 09:53:35;;;;;;;;;;;;;;;18.30;35.80;100600.13;5091212;28;20048;-63
2021/03/27 09:56:07;;;;;;;5.70;2.33;;;;;;;16.63;36.65;100601.31;5086951;28;19953;-63
2021/03/27 09:58:52;;;;;;;8.25;3.53;;;;;;;19.30;33.37;100581.88;5087431;28;20481;-63
2021/03/27 10:01:25;;;;;;;6.82;2.97;;;;;;;22.52;27.34;100571.66;5087487;28;20056;-63
2021/03/27 10:04:06;;;;;;;6.72;3.42;;;;;;;24.30;25.25;100579.34;5087542;28;20426;-63
2021/03/27 10:06:56;;;;;;;5.40;2.40;;;;;;;24.95;22.40;100579.31;5090469;28;20047;-63
2021/03/27 10:09:38;;;;;;;7.53;2.35;;;;;;;22.35;26.08;100564.63;5087398;28;20075;-63
2021/03/27 10:12:12;;;;;;;7.88;2.83;;;;;;;20.04;28.64;100590.25;5091894;28;20058;-63
2021/03/27 10:14:49;;;;;;;6.97;2.78;;;;;;;18.41;30.81;100581.47;5094337;28;20085;-63
2021/03/27 10:17:27;;;;;;;7.57;2.80;;;;;;;17.20;33.71;100582.63;5089001;28;20052;-63
2021/03/27 10:20:00;;;;;;;6.88;2.45;;;;;;;16.86;33.57;100587.59;5088815;28;20051;-62
2021/03/27 10:22:41;;;;;;;5.53;1.98;;;;;;;16.14;33.96;100604.91;5086844;28;20048;-62
2021/03/27 10:25:22;;;;;;;6.78;2.75;;;;;;;16.01;35.96;100629.38;5088845;28;20040;-62
2021/03/27 10:27:55;;;;;;;3.03;1.15;;;;;;;15.95;36.76;100641.19;5087502;28;20059;-61
2021/03/27 10:30:30;;;;;;;2.72;1.35;;;;;;;15.00;39.16;100641.63;5086959;28;20048;-62
2021/03/27 10:33:12;;;;;;;2.60;1.20;;;;;;;14.00;42.05;100652.25;5087984;28;20044;-62
2021/03/27 10:36:15;;;;;;;1.83;0.90;;;;;;;13.23;42.56;100653.13;5086952;28;20059;-62
2021/03/27 10:39:07;;;;;;;1.48;0.85;;;;;;;12.70;44.21;100649.41;5089956;28;20048;-61
2021/03/27 10:41:54;;;;;;;2.03;1.10;;;;;;;12.31;45.40;100648.31;5088574;28;20048;-61
2021/03/27 10:44:32;;;;;;;3.15;1.25;;;;;;;12.33;45.80;100658.00;5085489;28;20052;-61
2021/03/27 10:47:05;;;;;;;4.37;2.10;;;;;;;12.26;45.24;100662.41;5087354;28;20060;-61
2021/03/27 10:49:45;;;;;;;2.63;1.63;;;;;;;13.32;43.80;100659.59;5085941;28;20063;-62
2021/03/27 10:53:03;;;;;;;2.88;1.90;;;;;;;16.20;38.30;100661.72;5089269;28;20055;-62
2021/03/27 10:56:01;;;;;;;2.73;1.67;;;;;;;15.00;39.57;100692.13;5092654;28;20047;-62
2021/03/27 10:58:52;;;;;;;4.38;2.40;;;;;;;13.68;42.50;100697.63;5091364;28;20517;-62
2021/03/27 11:01:53;;;;;;;4.70;2.40;;;;;;;12.81;44.06;100703.88;5092058;28;20047;-62
2021/03/27 11:04:56;;;;;;;6.00;3.17;;;;;;;12.13;46.46;100711.59;5089746;28;20492;-62
2021/03/27 11:08:00;;;;;;;4.93;3.10;;;;;;;11.52;47.82;100736.22;5092482;28;20052;-62
2021/03/27 11:11:10;;;;;;;5.95;3.17;;;;;;;11.07;49.98;100750.06;5090267;28;20059;-62
2021/03/27 11:14:31;;;;;;;6.55;3.85;;;;;;;10.78;50.24;100745.63;5046933;28;20515;-62
2021/03/27 11:17:44;;;;;;;6.50;3.75;;;;;;;12.14;49.10;100722.47;5091662;28;20404;-62
2021/03/27 11:20:51;;;;;;;4.88;2.90;;;;;;;13.37;45.45;100732.16;5062093;28;20061;-62
2021/03/27 11:23:54;;;;;;;5.63;3.08;;;;;;;12.53;47.48;100756.34;5093372;27;20486;-62
2021/03/27 11:26:54;;;;;;;3.38;2.50;;;;;;;11.83;48.03;100777.38;5091938;27;20408;-62
2021/03/27 11:29:33;;;;;;;6.10;2.90;;;;;;;10.99;49.36;100761.94;5090677;28;20048;-62
2021/03/27 11:32:10;;;;;;;4.93;2.50;;;;;;;10.92;50.72;100734.50;5090706;28;20055;-62
2021/03/27 11:34:45;;;;;;;4.55;3.30;;;;;;;16.95;39.26;100712.09;5089738;28;20047;-61
2021/03/27 11:37:44;;;;;;;5.20;3.10;;;;;;;21.26;30.31;100708.34;5089908;28;20461;-61
2021/03/27 11:40:25;;;;;;;3.97;2.70;;;;;;;24.08;25.19;100709.41;5043404;28;20059;-62
2021/03/27 11:43:13;;;;;;;4.53;2.47;;;;;;;25.66;23.50;100715.19;5090919;28;20059;-62
2021/03/27 11:45:45;;;;;;;10.27;6.72;;;;;;;24.00;24.61;100721.16;5046732;28;20048;-62
2021/03/27 11:48:21;;;;;;;6.95;4.22;;;;;;;26.02;22.03;100734.25;5091337;28;20051;-62
2021/03/27 11:50:54;;;;;;;4.65;2.70;;;;;;;27.33;19.70;100728.84;5090554;28;20055;-62
2021/03/27 11:53:59;;;;;;;5.70;2.58;;;;;;;26.30;20.88;100716.94;5093198;28;20513;-62
2021/03/27 11:56:37;;;;;;;4.90;2.30;;;;;;;24.57;22.56;100729.06;5054088;28;20052;-63
2021/03/27 12:00:47;;;;;;;4.72;2.10;;;;;;;22.40;24.69;100722.41;5090057;28;21271;-63
2021/03/27 12:02:51;;;;;;;4.07;2.40;;;;;;;21.79;26.21;100735.84;5089486;28;20063;-63
2021/03/27 12:05:25;;;;;;;5.45;2.92;;;;;;;23.21;24.89;100723.56;5088850;28;20127;-63
2021/03/27 12:08:03;;;;;;;6.30;2.92;;;;;;;25.60;21.72;100727.41;5092091;28;20056;-63
2021/03/27 12:10:51;;;;;;;6.63;2.85;;;;;;;28.50;20.61;100727.09;5090311;28;20408;-64
2021/03/27 12:13:23;;;;;;;4.63;2.80;;;;;;;30.10;17.34;100716.81;5090753;28;20051;-64
2021/03/27 12:16:02;;;;;;;4.57;2.70;;;;;;;31.27;16.35;100722.28;5090466;28;20063;-64
2021/03/27 12:19:08;;;;;;;6.57;3.08;;;;;;;28.89;17.78;100726.44;5089729;28;20056;-64
2021/03/27 12:21:45;;;;;;;9.07;3.50;;;;;;;25.14;21.19;100748.25;5092173;28;20048;-64
2021/03/27 12:24:24;;;;;;;6.03;2.63;;;;;;;22.60;23.91;100742.91;5097628;28;20523;-64
2021/03/27 12:26:59;;;;;;;5.35;3.10;;;;;;;21.67;24.72;100763.22;5091593;28;20420;-64
2021/03/27 12:29:37;;;;;;;5.40;3.25;;;;;;;20.11;26.76;100756.41;5089241;28;20059;-64
2021/03/27 12:32:29;;;;;;;6.15;3.97;;;;;;;18.99;29.13;100764.34;5090370;28;20059;-64
2021/03/27 12:35:05;;;;;;;5.07;3.30;;;;;;;20.25;26.98;100765.19;5089415;28;20048;-64
2021/03/27 12:37:38;;;;;;;7.03;2.97;;;;;;;19.74;28.42;100766.16;5089666;28;20468;-64
2021/03/27 12:40:18;;;;;;;6.65;3.58;;;;;;;19.27;28.30;100769.88;5092635;28;20052;-64
2021/03/27 12:42:48;;;;;;;6.40;2.92;;;;;;;22.78;22.65;100768.59;5090047;28;20059;-64
2021/03/27 12:45:21;;;;;;;6.55;3.15;;;;;;;25.25;19.65;100757.63;5087638;28;20055;-64
2021/03/27 12:48:01;;;;;;;4.05;2.80;;;;;;;25.71;18.86;100768.97;5089154;28;20055;-64
2021/03/27 12:50:40;;;;;;;4.50;2.88;;;;;;;26.27;19.39;100754.09;5089539;28;20051;-64
2021/03/27 12:53:41;;;;;;;4.50;2.58;;;;;;;26.85;17.34;100752.53;5088474;28;20059;-64